Terminal Aerodrome Forecast
Issued by NWS Goodland, KS

Home | Current Version | Previous Version | Text Only | Print | Product List | Glossary On
Versions: 1 2 3 4 5 6 7 8 9 10 11 12 13 14 15 16 17 18 19 20 21 22 23
000
FTUS43 KGLD 170520
TAFGLD
TAF
KGLD 170520Z 1706/1806 13007KT P6SM SCT006 BKN150
      TEMPO 1706/1709 BKN006
     FM170900 11006KT 3SM BR OVC006
     FM171500 13008KT P6SM SCT006 OVC012
     FM172200 07008KT P6SM VCSH SCT008 OVC015
     FM180200 35011KT P6SM VCSH OVC010=

USA.gov is the U.S. government's official web portal to all federal, state and local government web resources and services.